createdAt,value
2023-05-22T00:01:00.253Z,35.3
2023-05-22T00:03:02.426Z,31.7
2023-05-22T00:05:04.455Z,34.1
2023-05-22T00:09:11.774Z,36.6
2023-05-22T00:11:13.845Z,36.3
2023-05-22T00:19:22.219Z,35.2
2023-05-22T00:25:31.573Z,42.1
2023-05-22T00:27:33.697Z,37.3
2023-05-22T00:29:35.737Z,38.9
2023-05-22T00:39:49.291Z,37.4
2023-05-22T00:40:51.947Z,39.5
2023-05-22T00:42:54.071Z,38.2
2023-05-22T00:44:57.649Z,37.9
2023-05-22T00:46:59.915Z,37.2
2023-05-22T00:55:11.188Z,34.6
2023-05-22T00:59:15.328Z,34.1
2023-05-22T01:01:17.489Z,34.5
2023-05-22T01:03:22.719Z,32.8
2023-05-22T01:05:24.747Z,35.5
2023-05-22T01:07:26.826Z,36
2023-05-22T01:15:35.147Z,32.7
2023-05-22T01:17:40.384Z,37.8
2023-05-22T01:19:42.462Z,35.1
2023-05-22T01:21:44.551Z,35
2023-05-22T01:23:46.624Z,35.9
2023-05-22T01:25:48.703Z,33.7
2023-05-22T01:27:50.798Z,33.4
2023-05-22T01:29:52.866Z,36.4
2023-05-22T01:31:58.114Z,39.2
2023-05-22T01:34:00.431Z,38.1
2023-05-22T01:37:04.884Z,39.9
2023-05-22T01:41:09.047Z,36.1
2023-05-22T01:45:16.399Z,36.2
2023-05-22T01:49:20.523Z,31.8
2023-05-22T01:51:22.623Z,33.8
2023-05-22T01:53:24.702Z,32.9
2023-05-22T01:55:26.774Z,32.8
2023-05-22T01:57:28.861Z,35.3
2023-05-22T01:59:34.095Z,33.4
2023-05-22T02:01:36.218Z,31.1
2023-05-22T02:03:38.308Z,32.9
2023-05-22T02:05:40.354Z,32.9
2023-05-22T02:07:42.454Z,34.2
2023-05-22T02:09:44.522Z,36.3
2023-05-22T02:11:46.604Z,33.1
2023-05-22T02:19:58.044Z,32.9
2023-05-22T02:22:00.130Z,34
2023-05-22T02:24:02.230Z,34.5
2023-05-22T02:26:04.324Z,34
2023-05-22T02:28:09.537Z,36.6
2023-05-22T02:30:11.611Z,34
2023-05-22T02:34:42.290Z,32.6
2023-05-22T02:38:46.465Z,33.7
2023-05-22T02:40:51.713Z,36.2
2023-05-22T02:42:53.781Z,34.2
2023-05-22T02:44:55.854Z,35.1
2023-05-22T02:51:02.084Z,36.4
2023-05-22T02:53:04.170Z,34
2023-05-22T02:55:09.577Z,36.5
2023-05-22T02:57:11.522Z,34.5
2023-05-22T02:59:13.635Z,35.7
2023-05-22T03:01:15.741Z,33.8
2023-05-22T03:03:17.906Z,33.3
2023-05-22T03:19:37.566Z,34.9
2023-05-22T03:27:49.067Z,33.6
2023-05-22T03:28:51.681Z,33.3
2023-05-22T03:30:53.795Z,32
2023-05-22T03:32:55.843Z,34.4
2023-05-22T03:34:57.908Z,34.2
2023-05-22T03:39:05.261Z,36.1
2023-05-22T03:41:07.273Z,33.9
2023-05-22T03:43:09.372Z,32.5
2023-05-22T03:45:11.446Z,34.3
2023-05-22T03:47:13.514Z,31.9
2023-05-22T03:49:15.616Z,34.3
2023-05-22T04:05:38.538Z,37.9
2023-05-22T04:07:40.547Z,36.9
2023-05-22T04:13:46.752Z,35.4
2023-05-22T04:15:48.870Z,38.3
2023-05-22T04:17:50.902Z,37.2
2023-05-22T04:19:56.107Z,40.2
2023-05-22T04:24:00.232Z,38
2023-05-22T04:25:02.837Z,40.9
2023-05-22T04:31:09.060Z,40.3
2023-05-22T04:37:18.437Z,39.1
2023-05-22T04:53:38.133Z,34.5
2023-05-22T04:57:42.289Z,35
2023-05-22T05:01:49.547Z,35.5
2023-05-22T05:03:51.640Z,37.2
2023-05-22T05:05:53.681Z,36
2023-05-22T05:07:55.764Z,35.7
2023-05-22T05:09:57.828Z,35.8
2023-05-22T05:11:59.976Z,35.6
2023-05-22T05:16:07.228Z,37.6
2023-05-22T05:18:09.350Z,35.2
2023-05-22T05:21:13.950Z,36.7
2023-05-22T05:23:16.019Z,36.4
2023-05-22T05:25:18.088Z,39.5
2023-05-22T05:27:20.166Z,40.8
2023-05-22T05:37:33.674Z,36.8
2023-05-22T05:39:35.746Z,36.4
2023-05-22T05:41:37.803Z,38.1
2023-05-22T05:49:49.296Z,38.3
2023-05-22T05:51:51.352Z,36.2
2023-05-22T06:00:02.888Z,30.7
2023-05-22T06:02:04.891Z,29.3
2023-05-22T06:04:07.054Z,30
2023-05-22T06:06:09.043Z,30.4
2023-05-22T06:08:11.148Z,30.9
2023-05-22T06:10:13.213Z,30.7
2023-05-22T06:12:18.418Z,29.3
2023-05-22T06:18:51.250Z,28
2023-05-22T06:20:53.296Z,28.2
2023-05-22T06:22:55.382Z,25.1
2023-05-22T06:25:00.629Z,27.5
2023-05-22T06:27:02.718Z,25.3
2023-05-22T06:33:09.094Z,26.3
2023-05-22T06:35:11.002Z,25.1
2023-05-22T06:37:14.650Z,23.2
2023-05-22T06:39:19.845Z,24.3
2023-05-22T06:43:23.979Z,24.1
2023-05-22T06:45:26.087Z,23.6
2023-05-22T06:47:28.164Z,21.5
2023-05-22T06:49:30.229Z,24
2023-05-22T06:51:32.290Z,20.1
2023-05-22T06:53:37.529Z,20.9
2023-05-22T06:55:39.589Z,21
2023-05-22T06:57:41.679Z,20.6
2023-05-22T06:59:43.742Z,20
2023-05-22T07:01:45.895Z,19.9
2023-05-22T07:03:47.910Z,20.2
2023-05-22T07:05:50.046Z,21.8
2023-05-22T07:07:55.256Z,22.6
2023-05-22T07:09:57.289Z,22.9
2023-05-22T07:11:59.354Z,23.7
2023-05-22T07:13:01.992Z,24.1
2023-05-22T07:23:16.431Z,21.7
2023-05-22T07:25:18.493Z,23.5
2023-05-22T07:27:20.589Z,21.6
2023-05-22T07:29:23.393Z,23.5
2023-05-22T07:35:32.038Z,22.3
2023-05-22T07:37:34.115Z,22.9
2023-05-22T07:39:36.231Z,22.2
2023-05-22T07:41:38.275Z,24.1
2023-05-22T08:00:00.132Z,22
2023-05-22T08:02:02.200Z,20.8
2023-05-22T08:04:07.476Z,21.6
2023-05-22T08:09:14.148Z,20.1
2023-05-22T08:11:16.212Z,20.5
2023-05-22T08:13:18.283Z,20
2023-05-22T08:15:20.338Z,21.1
2023-05-22T08:23:31.779Z,23.8
2023-05-22T08:25:33.840Z,23.9
2023-05-22T08:27:35.884Z,21.9
2023-05-22T08:31:43.238Z,25
2023-05-22T08:46:00.795Z,25.1
2023-05-22T08:48:02.900Z,24.4
2023-05-22T08:58:13.204Z,26.6
2023-05-22T09:00:18.425Z,26.2
2023-05-22T09:05:25.167Z,27.3
2023-05-22T09:07:27.244Z,25.5
2023-05-22T09:09:29.304Z,24.2
2023-05-22T09:11:31.354Z,22.8
2023-05-22T09:13:36.582Z,24.3
2023-05-22T09:15:38.641Z,25
2023-05-22T09:17:40.756Z,26.1
2023-05-22T09:19:42.779Z,31.8
2023-05-22T09:21:44.826Z,22.8
2023-05-22T09:23:46.848Z,23.9
2023-05-22T09:25:48.917Z,22.3
2023-05-22T09:27:54.137Z,21.5
2023-05-22T09:29:56.185Z,22.1
2023-05-22T09:31:58.312Z,23.6
2023-05-22T09:36:02.370Z,34.9
2023-05-22T09:38:04.420Z,24.7
2023-05-22T09:40:06.489Z,25.3
2023-05-22T09:42:11.732Z,29.5
2023-05-22T09:44:13.810Z,22.7
2023-05-22T09:46:15.896Z,22.7
2023-05-22T09:48:17.865Z,20.5
2023-05-22T09:50:19.917Z,19.8
2023-05-22T09:52:22.000Z,20.2
2023-05-22T10:00:33.335Z,17.8
2023-05-22T10:03:01.980Z,21.9
2023-05-22T10:05:03.956Z,21.2
2023-05-22T10:07:05.970Z,20.7
2023-05-22T10:09:11.208Z,20.4
2023-05-22T10:11:13.286Z,21
2023-05-22T10:13:15.287Z,19.9
2023-05-22T10:15:17.345Z,20.2
2023-05-22T10:17:19.409Z,19.3
2023-05-22T10:19:21.501Z,17.2
2023-05-22T10:21:23.491Z,17.1
2023-05-22T10:23:28.698Z,16.5
2023-05-22T10:25:30.756Z,17.6
2023-05-22T10:27:32.790Z,17.4
2023-05-22T10:43:52.325Z,16.6
2023-05-22T10:47:56.381Z,14.3
2023-05-22T10:49:58.390Z,15.4
2023-05-22T10:52:03.594Z,16
2023-05-22T10:54:05.843Z,14.1
2023-05-22T10:56:07.682Z,16.3
2023-05-22T10:57:10.254Z,18
2023-05-22T10:59:12.272Z,14.6
2023-05-22T11:01:14.390Z,14.5
2023-05-22T11:03:18.368Z,14.2
2023-05-22T11:05:21.553Z,15.2
2023-05-22T11:07:23.577Z,14.5
2023-05-22T11:09:25.607Z,12.8
2023-05-22T11:13:29.760Z,14.2
2023-05-22T11:15:31.660Z,14.5
2023-05-22T11:17:33.698Z,11.8
2023-05-22T11:19:38.925Z,10.8
2023-05-22T11:21:40.875Z,9.3
2023-05-22T11:23:42.916Z,12.2
2023-05-22T11:29:48.909Z,13.2
2023-05-22T11:33:56.088Z,15.9
2023-05-22T11:35:58.096Z,14
2023-05-22T11:38:00.125Z,13.1
2023-05-22T11:40:02.124Z,12.8
2023-05-22T11:46:09.169Z,13.5
2023-05-22T11:48:15.632Z,13.3
2023-05-22T11:50:22.763Z,11.9
2023-05-22T11:52:18.257Z,13.3
2023-05-22T11:53:20.849Z,13.4
2023-05-22T11:57:24.806Z,11.7
2023-05-22T11:59:26.831Z,14.8
2023-05-22T12:03:34.212Z,12.3
2023-05-22T12:05:35.971Z,11.7
2023-05-22T12:07:37.948Z,12.1
2023-05-22T12:09:39.938Z,11.8
2023-05-22T12:17:51.117Z,11.9
2023-05-22T12:23:57.099Z,11.7
2023-05-22T12:25:59.089Z,12.6
2023-05-22T12:28:01.110Z,11
2023-05-22T12:30:07.817Z,11
2023-05-22T12:36:13.768Z,8.9
2023-05-22T12:42:19.766Z,9.7
2023-05-22T12:44:24.934Z,11.6
2023-05-22T12:48:28.957Z,10.2
2023-05-22T12:49:31.513Z,10.5
2023-05-22T12:51:33.531Z,9.9
2023-05-22T12:53:35.520Z,9
2023-05-22T12:55:37.529Z,9.2
2023-05-22T12:57:42.778Z,9.8
2023-05-22T12:59:44.701Z,9.2
2023-05-22T13:01:46.750Z,11
2023-05-22T13:03:48.737Z,10.7
2023-05-22T13:05:50.562Z,9.9
2023-05-22T13:07:52.554Z,12.2
2023-05-22T13:09:54.582Z,10
2023-05-22T13:11:59.864Z,9.1
2023-05-22T13:14:01.746Z,10.2
2023-05-22T13:16:03.796Z,10.2
2023-05-22T13:18:05.800Z,8.4
2023-05-22T13:20:07.744Z,8.8
2023-05-22T13:22:09.715Z,8.7
2023-05-22T13:26:16.926Z,8.4
2023-05-22T13:28:18.898Z,8.4
2023-05-22T13:30:20.936Z,8.7
2023-05-22T13:32:22.925Z,9.6
2023-05-22T13:34:25.123Z,8.4
2023-05-22T13:36:26.960Z,10.1
2023-05-22T13:38:28.980Z,10.1
2023-05-22T13:40:34.139Z,11.7
2023-05-22T13:42:36.143Z,11.1
2023-05-22T13:53:15.826Z,10.8
2023-05-22T13:55:17.806Z,11.3
2023-05-22T13:57:19.803Z,11.1
2023-05-22T13:59:21.827Z,9.7
2023-05-22T14:01:23.905Z,14
2023-05-22T14:03:25.872Z,12.1
2023-05-22T14:05:27.844Z,15.4
2023-05-22T14:07:33.008Z,9.6
2023-05-22T14:09:35.033Z,9.1
2023-05-22T14:13:39.055Z,8.7
2023-05-22T14:15:41.195Z,10.1
2023-05-22T14:17:43.089Z,8.3
2023-05-22T14:19:45.080Z,15.5
2023-05-22T14:21:50.251Z,9.6
2023-05-22T14:23:52.268Z,8.6
2023-05-22T14:25:54.294Z,8.3
2023-05-22T14:29:58.325Z,9
2023-05-22T14:32:00.353Z,7.9
2023-05-22T14:34:02.374Z,7.9
2023-05-22T14:36:07.579Z,8.6
2023-05-22T14:38:09.660Z,8.4
2023-05-22T14:40:11.631Z,8.6
2023-05-22T14:41:14.226Z,9
2023-05-22T14:43:16.241Z,8.5
2023-05-22T14:45:18.306Z,8.8
2023-05-22T14:47:20.337Z,8.8
2023-05-22T14:49:25.539Z,8.2
2023-05-22T14:51:27.597Z,7.7
2023-05-22T14:53:29.599Z,10.2
2023-05-22T14:55:31.656Z,9.4
2023-05-22T14:57:33.686Z,12.9
2023-05-22T14:59:35.711Z,11.2
2023-05-22T15:03:42.972Z,7.5
2023-05-22T15:05:44.985Z,7.9
2023-05-22T15:07:48.460Z,12.3
2023-05-22T15:11:51.111Z,6.7
2023-05-22T15:13:53.128Z,8.4
2023-05-22T15:15:55.164Z,6
2023-05-22T15:18:00.360Z,5.8
2023-05-22T15:20:02.341Z,5.6
2023-05-22T15:22:18.182Z,6
2023-05-22T15:24:06.310Z,5.9
2023-05-22T15:26:08.309Z,4.7
2023-05-22T15:30:12.448Z,21.8
2023-05-22T15:32:17.480Z,8.1
2023-05-22T15:34:19.408Z,5.9
2023-05-22T15:36:21.391Z,5.9
2023-05-22T15:37:23.972Z,54.9
2023-05-22T15:39:25.955Z,15.3
2023-05-22T15:49:38.977Z,5.8
2023-05-22T15:53:42.914Z,8.1
2023-05-22T15:55:44.857Z,7
2023-05-22T15:57:46.821Z,5.2
2023-05-22T15:59:51.967Z,15.7
2023-05-22T16:03:55.916Z,4.4
2023-05-22T16:05:57.855Z,4.1
2023-05-22T16:07:59.808Z,4.7
2023-05-22T16:10:01.893Z,5
2023-05-22T16:12:03.741Z,4.3
2023-05-22T16:16:10.873Z,4
2023-05-22T16:20:14.770Z,5.5
2023-05-22T16:22:16.732Z,6
2023-05-22T16:24:18.717Z,4.7
2023-05-22T16:26:20.687Z,4.1
2023-05-22T16:28:25.861Z,4.9
2023-05-22T16:30:27.865Z,4.7
2023-05-22T16:32:29.867Z,6.3
2023-05-22T16:33:32.433Z,6.3
2023-05-22T16:35:34.432Z,13.2
2023-05-22T16:37:36.433Z,29.2
2023-05-22T16:39:38.406Z,12.7
2023-05-22T16:41:43.601Z,7.1
2023-05-22T16:43:45.615Z,5.6
2023-05-22T16:45:47.675Z,5.8
2023-05-22T16:47:49.681Z,4.1
2023-05-22T16:49:51.642Z,4.9
2023-05-22T16:51:53.795Z,5.5
2023-05-22T16:53:55.670Z,4.4
2023-05-22T16:56:00.899Z,4.5
2023-05-22T16:58:02.897Z,4.7
2023-05-22T17:00:04.946Z,5.2
2023-05-22T17:02:06.991Z,10.6
2023-05-22T17:06:11.036Z,8.4
2023-05-22T17:12:20.344Z,8.5
2023-05-22T17:14:22.399Z,4
2023-05-22T17:16:24.480Z,3.9
2023-05-22T17:20:28.532Z,45.2
2023-05-22T17:22:30.728Z,52.2
2023-05-22T17:24:35.803Z,22.2
2023-05-22T17:26:37.877Z,9.7
2023-05-22T17:28:39.942Z,6.2
2023-05-22T17:51:35.382Z,32.4
2023-05-22T17:53:39.139Z,13.8
2023-05-22T17:55:39.530Z,9.7
2023-05-22T17:57:41.592Z,9.5
2023-05-22T17:59:43.682Z,6.1
2023-05-22T18:01:45.758Z,12.5
2023-05-22T18:03:47.984Z,17.5
2023-05-22T18:05:53.129Z,13.9
2023-05-22T18:07:55.108Z,10.3
2023-05-22T18:09:57.203Z,20
2023-05-22T18:11:59.292Z,23.8
2023-05-22T18:14:01.343Z,9.8
2023-05-22T18:16:03.443Z,10
2023-05-22T18:18:05.545Z,7
2023-05-22T18:22:14.290Z,8.3
2023-05-22T18:24:16.357Z,8.1
2023-05-22T18:25:18.962Z,10.4
2023-05-22T18:37:34.586Z,11.3
2023-05-22T18:39:36.675Z,8.3
2023-05-22T18:41:38.759Z,9.1
2023-05-22T18:43:40.844Z,7.7
2023-05-22T18:45:42.921Z,8.1
2023-05-22T18:51:52.302Z,8.4
2023-05-22T18:53:54.369Z,7.3
2023-05-22T18:55:56.454Z,7.7
2023-05-22T18:57:58.550Z,21.4
2023-05-22T19:00:00.653Z,12.9
2023-05-22T19:02:05.870Z,13.6
2023-05-22T19:04:07.989Z,11.6
2023-05-22T19:06:10.052Z,15
2023-05-22T19:08:12.120Z,8.6
2023-05-22T19:10:14.212Z,8.9
2023-05-22T19:12:16.278Z,8.7
2023-05-22T19:14:18.365Z,7.4
2023-05-22T19:16:23.637Z,10.2
2023-05-22T19:18:25.693Z,16.1
2023-05-22T19:20:27.778Z,11.9
2023-05-22T19:23:32.476Z,10.4
2023-05-22T19:25:34.564Z,5.9
2023-05-22T19:27:38.726Z,6.1
2023-05-22T19:29:41.897Z,6.8
2023-05-22T19:31:44.061Z,5.2
2023-05-22T19:33:46.083Z,6.6
2023-05-22T19:35:48.258Z,5.9
2023-05-22T19:37:50.255Z,6.7
2023-05-22T19:39:52.324Z,6.7
2023-05-22T19:41:54.417Z,6.3
2023-05-22T19:46:01.817Z,6.1
2023-05-22T19:50:05.904Z,6.6
2023-05-22T19:54:10.106Z,6.1
2023-05-22T19:56:12.161Z,6.2
2023-05-22T19:58:17.355Z,5.7
2023-05-22T20:00:19.465Z,5.2
2023-05-22T20:02:21.610Z,6.1
2023-05-22T20:06:25.725Z,4.6
2023-05-22T20:12:35.127Z,9
2023-05-22T20:16:39.352Z,9.2
2023-05-22T20:17:41.984Z,8.7
2023-05-22T20:23:48.181Z,7.7
2023-05-22T20:25:53.413Z,8.7
2023-05-22T20:27:55.502Z,7.7
2023-05-22T20:29:59.965Z,7.3
2023-05-22T20:31:59.843Z,9.3
2023-05-22T20:38:05.926Z,7.1
2023-05-22T20:40:11.128Z,7.7
2023-05-22T20:42:13.300Z,7.3
2023-05-22T20:44:15.317Z,8.4
2023-05-22T20:46:17.487Z,8.7
2023-05-22T20:48:19.476Z,6.8
2023-05-22T20:50:21.572Z,6.9
2023-05-22T20:52:23.676Z,7.7
2023-05-22T20:54:28.862Z,7.9
2023-05-22T20:56:30.991Z,6.1
2023-05-22T20:58:33.080Z,7
2023-05-22T21:27:35.056Z,5.2
2023-05-22T21:29:37.156Z,5.7
2023-05-22T21:31:39.238Z,4.6
2023-05-22T21:33:41.344Z,5
2023-05-22T21:35:46.562Z,5.5
2023-05-22T21:37:48.652Z,4.8
2023-05-22T21:39:50.707Z,4.2
2023-05-22T21:41:52.800Z,3.9
2023-05-22T21:45:56.988Z,4.1
2023-05-22T21:47:59.056Z,4.9
2023-05-22T21:50:04.255Z,4.7
2023-05-22T21:58:12.574Z,4.6
2023-05-22T22:02:16.774Z,4.9
2023-05-22T22:04:21.957Z,3.5
2023-05-22T22:06:24.067Z,4.8
2023-05-22T22:09:28.728Z,4.5
2023-05-22T22:13:32.873Z,3.8
2023-05-22T22:15:34.994Z,5.5
2023-05-22T22:17:40.288Z,4.5
2023-05-22T22:19:42.307Z,5.3
2023-05-22T22:23:46.464Z,5.5
2023-05-22T22:25:48.547Z,4.7
2023-05-22T22:29:52.719Z,6.4
2023-05-22T22:34:00.035Z,5.2
2023-05-22T22:36:02.110Z,5.7
2023-05-22T22:42:08.356Z,5.8
2023-05-22T22:44:10.401Z,5.9
2023-05-22T22:46:15.745Z,5.2
2023-05-22T22:48:17.738Z,5.4
2023-05-22T22:56:26.064Z,5.4
2023-05-22T22:58:28.109Z,6.2
2023-05-22T23:00:33.358Z,6
2023-05-22T23:02:35.489Z,5.1
2023-05-22T23:04:37.599Z,5.6
2023-05-22T23:05:40.471Z,5.1
2023-05-22T23:07:42.211Z,6.1
2023-05-22T23:11:46.364Z,7
2023-05-22T23:13:51.624Z,7.1
2023-05-22T23:15:53.693Z,6.8
2023-05-22T23:17:55.764Z,7.3
2023-05-22T23:19:57.825Z,7
2023-05-22T23:21:59.920Z,7.5
2023-05-22T23:24:01.988Z,7.4
2023-05-22T23:30:11.362Z,7.6
2023-05-22T23:36:17.615Z,6.2
2023-05-22T23:38:19.682Z,6.9
2023-05-22T23:42:26.996Z,6.1
2023-05-22T23:44:29.091Z,6.9
2023-05-22T23:48:33.252Z,5.5
2023-05-22T23:50:35.342Z,6.1
2023-05-22T23:52:37.430Z,6
2023-05-22T23:54:39.501Z,6.3
2023-05-22T23:56:44.710Z,6.4
2023-05-22T23:58:46.833Z,6.5
